createdAt,value
2019-05-13T00:01:56.069Z,7.80
2019-05-13T00:04:26.517Z,7.80
2019-05-13T00:06:57.732Z,7.80
2019-05-13T00:09:28.614Z,7.90
2019-05-13T00:11:59.173Z,7.90
2019-05-13T00:14:29.476Z,7.90
2019-05-13T00:16:59.751Z,8.00
2019-05-13T00:19:30.137Z,8.00
2019-05-13T00:22:00.681Z,8.00
2019-05-13T00:24:30.889Z,8.00
2019-05-13T00:27:01.088Z,8.00
2019-05-13T00:29:31.301Z,8.00
2019-05-13T00:32:01.430Z,8.00
2019-05-13T00:34:33.888Z,8.00
2019-05-13T00:37:11.114Z,8.10
2019-05-13T00:39:35.665Z,8.10
2019-05-13T00:42:06.017Z,8.10
2019-05-13T00:44:36.387Z,8.10
2019-05-13T00:47:06.730Z,8.20
2019-05-13T00:49:37.396Z,8.10
2019-05-13T00:52:08.018Z,8.10
2019-05-13T00:54:38.293Z,8.10
2019-05-13T00:57:08.753Z,8.10
2019-05-13T00:59:38.942Z,8.10
2019-05-13T01:02:09.484Z,8.10
2019-05-13T01:04:39.911Z,8.10
2019-05-13T01:07:24.385Z,8.10
2019-05-13T01:09:44.192Z,8.10
2019-05-13T01:12:14.042Z,8.10
2019-05-13T01:14:44.361Z,8.10
2019-05-13T01:17:14.553Z,8.10
2019-05-13T01:19:44.791Z,8.10
2019-05-13T01:22:14.995Z,8.10
2019-05-13T01:24:45.215Z,8.10
2019-05-13T01:27:15.491Z,8.10
2019-05-13T01:29:45.769Z,8.10
2019-05-13T01:32:16.162Z,8.10
2019-05-13T01:34:46.433Z,8.10
2019-05-13T01:37:16.582Z,8.10
2019-05-13T01:39:46.913Z,8.10
2019-05-13T01:42:17.128Z,8.10
2019-05-13T01:44:47.341Z,8.00
2019-05-13T01:47:17.653Z,8.00
2019-05-13T01:49:47.860Z,8.00
2019-05-13T01:52:18.157Z,8.00
2019-05-13T01:54:48.357Z,8.00
2019-05-13T01:57:18.676Z,8.00
2019-05-13T01:59:49.027Z,8.00
2019-05-13T02:02:19.441Z,7.90
2019-05-13T02:04:49.636Z,7.90
2019-05-13T02:07:19.849Z,7.90
2019-05-13T02:09:50.271Z,8.00
2019-05-13T02:12:20.541Z,8.00
2019-05-13T02:14:50.669Z,8.00
2019-05-13T02:17:23.285Z,8.00
2019-05-13T02:19:54.087Z,8.00
2019-05-13T02:22:24.862Z,8.00
2019-05-13T02:24:55.104Z,8.00
2019-05-13T02:27:25.642Z,8.00
2019-05-13T02:29:55.893Z,8.00
2019-05-13T02:32:26.021Z,8.00
2019-05-13T02:34:56.240Z,8.00
2019-05-13T02:37:29.408Z,8.00
2019-05-13T02:39:58.361Z,8.00
2019-05-13T02:42:28.485Z,8.00
2019-05-13T02:44:58.713Z,8.00
2019-05-13T02:47:28.926Z,8.00
2019-05-13T02:50:01.952Z,8.00
2019-05-13T02:52:33.391Z,8.00
2019-05-13T02:55:04.079Z,8.00
2019-05-13T02:57:34.556Z,8.00
2019-05-13T03:00:07.198Z,8.00
2019-05-13T03:02:37.557Z,8.10
2019-05-13T03:05:08.070Z,8.10
2019-05-13T03:07:38.360Z,8.10
2019-05-13T03:10:08.897Z,8.10
2019-05-13T03:12:41.570Z,8.10
2019-05-13T03:15:13.039Z,8.00
2019-05-13T03:17:54.050Z,8.00
2019-05-13T03:20:24.245Z,8.00
2019-05-13T03:22:54.490Z,8.00
2019-05-13T03:25:25.031Z,8.00
2019-05-13T03:27:55.451Z,8.00
2019-05-13T03:30:26.390Z,8.00
2019-05-13T03:33:01.838Z,8.00
2019-05-13T03:35:28.640Z,8.00
2019-05-13T03:37:58.902Z,8.00
2019-05-13T03:40:32.800Z,8.00
2019-05-13T03:43:02.712Z,8.00
2019-05-13T03:45:34.828Z,8.00
2019-05-13T03:48:05.167Z,8.00
2019-05-13T03:50:35.527Z,8.10
2019-05-13T03:53:06.060Z,8.10
2019-05-13T03:55:36.481Z,8.10
2019-05-13T03:58:07.505Z,8.10
2019-05-13T04:00:37.716Z,8.10
2019-05-13T04:03:07.986Z,8.10
2019-05-13T04:05:38.427Z,8.20
2019-05-13T04:08:08.852Z,8.20
2019-05-13T04:10:41.963Z,8.20
2019-05-13T04:13:12.432Z,8.20
2019-05-13T04:15:43.156Z,8.20
2019-05-13T04:18:13.810Z,8.20
2019-05-13T04:20:44.167Z,8.30
2019-05-13T04:23:14.686Z,8.30
2019-05-13T04:25:45.098Z,8.30
2019-05-13T04:28:15.382Z,8.30
2019-05-13T04:30:45.790Z,8.30
2019-05-13T04:33:16.238Z,8.30
2019-05-13T04:35:46.518Z,8.30
2019-05-13T04:38:16.791Z,8.30
2019-05-13T04:40:47.154Z,8.30
2019-05-13T04:43:18.006Z,8.30
2019-05-13T04:45:48.509Z,8.30
2019-05-13T04:48:18.973Z,8.30
2019-05-13T04:50:49.418Z,8.40
2019-05-13T04:53:22.704Z,8.30
2019-05-13T04:55:52.668Z,8.30
2019-05-13T04:58:23.816Z,8.30
2019-05-13T05:01:16.837Z,8.40
2019-05-13T05:03:56.217Z,8.40
2019-05-13T05:06:33.308Z,8.40
2019-05-13T05:09:12.809Z,8.40
2019-05-13T05:12:04.013Z,8.40
2019-05-13T05:14:49.158Z,8.50
2019-05-13T05:17:34.411Z,8.50
2019-05-13T05:20:23.142Z,8.50
2019-05-13T05:23:13.050Z,8.60
2019-05-13T05:26:02.633Z,8.60
2019-05-13T05:28:41.772Z,8.70
2019-05-13T05:31:41.861Z,8.80
2019-05-13T05:34:32.355Z,8.80
2019-05-13T05:37:23.630Z,8.90
2019-05-13T05:39:55.936Z,8.90
2019-05-13T05:42:29.485Z,9.00
2019-05-13T05:45:02.832Z,9.00
2019-05-13T05:47:35.085Z,9.10
2019-05-13T05:50:05.897Z,9.10
2019-05-13T05:52:37.260Z,9.10
2019-05-13T05:55:07.801Z,9.20
2019-05-13T05:57:41.850Z,9.20
2019-05-13T06:00:12.712Z,9.30
2019-05-13T06:02:45.937Z,9.40
2019-05-13T06:05:16.394Z,9.60
2019-05-13T06:07:47.133Z,9.60
2019-05-13T06:10:17.490Z,9.60
2019-05-13T06:12:48.264Z,9.60
2019-05-13T06:15:18.524Z,9.50
2019-05-13T06:17:48.974Z,9.60
2019-05-13T06:20:21.125Z,9.50
2019-05-13T06:22:51.690Z,9.60
2019-05-13T06:25:23.370Z,9.60
2019-05-13T06:27:53.931Z,9.60
2019-05-13T06:30:24.359Z,9.50
2019-05-13T06:32:55.600Z,9.60
2019-05-13T06:35:26.025Z,9.50
2019-05-13T06:37:56.589Z,9.70
2019-05-13T06:40:27.108Z,9.70
2019-05-13T06:42:57.312Z,9.60
2019-05-13T06:45:27.698Z,9.60
2019-05-13T06:47:57.986Z,9.60
2019-05-13T06:50:28.193Z,9.70
2019-05-13T06:52:58.475Z,9.80
2019-05-13T06:55:31.440Z,9.90
2019-05-13T06:58:02.197Z,10.00
2019-05-13T07:00:34.635Z,10.20
2019-05-13T07:03:05.025Z,10.20
2019-05-13T07:05:35.393Z,10.20
2019-05-13T07:08:05.835Z,10.10
2019-05-13T07:10:36.525Z,10.20
2019-05-13T07:13:06.981Z,10.40
2019-05-13T07:15:37.389Z,10.60
2019-05-13T07:18:07.765Z,10.80
2019-05-13T07:20:38.057Z,10.90
2019-05-13T07:23:08.511Z,10.90
2019-05-13T07:25:38.741Z,11.00
2019-05-13T07:28:09.137Z,11.20
2019-05-13T07:30:42.703Z,11.20
2019-05-13T07:33:13.379Z,11.20
2019-05-13T07:35:45.413Z,11.20
2019-05-13T07:38:17.069Z,11.00
2019-05-13T07:40:48.729Z,10.80
2019-05-13T07:43:21.373Z,10.70
2019-05-13T07:45:51.427Z,10.60
2019-05-13T07:48:27.512Z,10.60
2019-05-13T07:51:00.153Z,10.70
2019-05-13T07:53:25.773Z,10.60
2019-05-13T07:55:56.246Z,10.60
2019-05-13T07:58:26.541Z,10.40
2019-05-13T08:00:57.119Z,10.40
2019-05-13T08:03:27.520Z,10.30
2019-05-13T08:05:57.788Z,10.10
2019-05-13T08:08:28.018Z,10.00
2019-05-13T08:10:58.290Z,10.00
2019-05-13T08:13:28.641Z,9.90
2019-05-13T08:16:01.651Z,9.90
2019-05-13T08:18:31.945Z,9.90
2019-05-13T08:21:02.487Z,9.70
2019-05-13T08:23:32.923Z,9.60
2019-05-13T08:26:03.277Z,9.50
2019-05-13T08:28:33.732Z,9.50
2019-05-13T08:31:04.240Z,9.50
2019-05-13T08:33:34.890Z,9.50
2019-05-13T08:36:05.494Z,9.40
2019-05-13T08:38:35.888Z,9.40
2019-05-13T08:41:09.764Z,9.40
2019-05-13T08:43:38.126Z,9.40
2019-05-13T08:46:08.533Z,9.30
2019-05-13T08:48:38.850Z,9.30
2019-05-13T08:51:11.574Z,9.40
2019-05-13T08:53:42.433Z,9.40
2019-05-13T08:56:12.867Z,9.40
2019-05-13T08:58:43.150Z,9.40
2019-05-13T09:01:13.511Z,9.50
2019-05-13T09:03:44.130Z,9.50
2019-05-13T09:06:14.561Z,9.50
2019-05-13T09:08:44.897Z,9.60
2019-05-13T09:11:15.365Z,9.60
2019-05-13T09:13:45.565Z,9.70
2019-05-13T09:16:15.949Z,9.70
2019-05-13T09:18:46.148Z,9.80
2019-05-13T09:21:16.525Z,9.80
2019-05-13T09:23:46.727Z,9.90
2019-05-13T09:26:16.935Z,9.80
2019-05-13T09:28:47.278Z,9.90
2019-05-13T09:31:17.604Z,10.00
2019-05-13T09:33:48.114Z,10.00
2019-05-13T09:36:18.477Z,10.10
2019-05-13T09:38:48.857Z,10.20
2019-05-13T09:41:21.477Z,10.30
2019-05-13T09:43:51.533Z,10.40
2019-05-13T09:46:22.532Z,10.50
2019-05-13T09:48:53.093Z,10.50
2019-05-13T09:51:23.455Z,10.60
2019-05-13T09:53:53.759Z,10.70
2019-05-13T09:56:24.138Z,10.80
2019-05-13T09:58:54.530Z,10.90
2019-05-13T10:01:24.977Z,10.90
2019-05-13T10:03:58.218Z,11.00
2019-05-13T10:06:27.257Z,11.10
2019-05-13T10:08:57.633Z,11.20
2019-05-13T10:11:28.161Z,11.30
2019-05-13T10:13:58.471Z,11.30
2019-05-13T10:16:31.165Z,11.30
2019-05-13T10:19:01.744Z,11.50
2019-05-13T10:21:32.881Z,11.60
2019-05-13T10:24:03.394Z,11.80
2019-05-13T10:26:34.230Z,11.90
2019-05-13T10:29:04.865Z,12.00
2019-05-13T10:31:35.392Z,12.60
2019-05-13T10:34:06.040Z,13.50
2019-05-13T10:36:36.562Z,13.60
2019-05-13T10:39:08.293Z,13.80
2019-05-13T10:41:38.785Z,13.90
2019-05-13T10:44:12.152Z,13.80
2019-05-13T10:46:42.838Z,13.90
2019-05-13T10:49:13.268Z,13.80
2019-05-13T10:51:43.741Z,13.60
2019-05-13T10:54:14.191Z,13.50
2019-05-13T10:56:44.600Z,13.60
2019-05-13T10:59:14.879Z,13.90
2019-05-13T11:01:46.861Z,14.10
2019-05-13T11:04:17.217Z,14.30
2019-05-13T11:06:47.812Z,14.40
2019-05-13T11:09:18.273Z,14.90
2019-05-13T11:11:48.561Z,15.10
2019-05-13T11:14:21.354Z,15.10
2019-05-13T11:16:52.322Z,14.80
2019-05-13T11:21:54.701Z,14.60
2019-05-13T11:24:25.101Z,14.40
2019-05-13T11:26:55.343Z,14.20
2019-05-13T11:29:25.705Z,14.10
2019-05-13T11:31:56.064Z,14.00
2019-05-13T11:34:26.768Z,14.00
2019-05-13T11:36:57.140Z,13.90
2019-05-13T11:39:27.635Z,14.00
2019-05-13T11:41:58.032Z,14.10
2019-05-13T11:44:28.424Z,14.40
2019-05-13T11:46:58.817Z,14.50
2019-05-13T11:49:31.616Z,14.90
2019-05-13T11:52:03.146Z,14.70
2019-05-13T11:54:33.808Z,14.60
2019-05-13T11:57:06.539Z,14.40
2019-05-13T11:59:36.493Z,14.50
2019-05-13T12:02:07.464Z,14.50
2019-05-13T12:04:37.860Z,14.40
2019-05-13T12:07:08.245Z,14.20
2019-05-13T12:09:38.532Z,14.30
2019-05-13T12:12:08.812Z,14.30
2019-05-13T12:14:56.779Z,14.50
2019-05-13T12:17:14.235Z,14.70
2019-05-13T12:19:43.237Z,14.90
2019-05-13T12:22:13.697Z,14.90
2019-05-13T12:24:43.972Z,15.40
2019-05-13T12:27:14.341Z,15.60
2019-05-13T12:29:44.853Z,15.60
2019-05-13T12:32:15.196Z,15.20
2019-05-13T12:34:46.227Z,15.10
2019-05-13T12:37:16.781Z,14.90
2019-05-13T12:39:47.274Z,14.60
2019-05-13T12:42:18.168Z,14.50
2019-05-13T12:45:04.108Z,14.40
2019-05-13T12:47:22.771Z,14.30
2019-05-13T12:49:56.106Z,14.10
2019-05-13T12:52:27.316Z,14.00
2019-05-13T12:54:58.014Z,13.90
2019-05-13T12:57:28.577Z,13.80
2019-05-13T13:00:02.079Z,13.80
2019-05-13T13:02:32.609Z,13.60
2019-05-13T13:05:13.299Z,13.60
2019-05-13T13:07:41.197Z,13.60
2019-05-13T13:10:08.116Z,13.50
2019-05-13T13:12:38.625Z,13.40
2019-05-13T13:15:33.014Z,13.40
2019-05-13T13:17:41.541Z,13.40
2019-05-13T13:20:15.028Z,13.60
2019-05-13T13:22:44.969Z,13.70
2019-05-13T13:25:16.889Z,13.70
2019-05-13T13:28:08.845Z,13.60
2019-05-13T13:30:19.620Z,13.50
2019-05-13T13:32:54.944Z,13.20
2019-05-13T13:35:22.696Z,13.00
2019-05-13T13:37:53.278Z,13.10
2019-05-13T13:40:29.155Z,13.00
2019-05-13T13:42:55.849Z,13.00
2019-05-13T13:45:27.049Z,12.10
2019-05-13T13:48:03.545Z,11.50
2019-05-13T13:50:33.361Z,11.70
2019-05-13T13:53:02.175Z,11.80
2019-05-13T13:55:32.536Z,11.50
2019-05-13T13:58:03.357Z,11.20
2019-05-13T14:00:45.149Z,11.10
2019-05-13T14:03:06.660Z,11.10
2019-05-13T14:05:37.094Z,11.20
2019-05-13T14:06:28.716Z,14.80
2019-05-13T14:08:07.571Z,11.30
2019-05-13T14:10:37.869Z,11.60
2019-05-13T14:13:08.167Z,11.70
2019-05-13T14:15:38.565Z,11.60
2019-05-13T14:18:11.289Z,11.50
2019-05-13T14:20:42.833Z,11.40
2019-05-13T14:23:13.009Z,11.50
2019-05-13T14:25:43.412Z,11.70
2019-05-13T14:28:17.317Z,11.60
2019-05-13T14:30:45.976Z,11.80
2019-05-13T14:33:16.262Z,11.80
2019-05-13T14:35:46.569Z,11.80
2019-05-13T14:38:16.801Z,11.60
2019-05-13T14:40:47.466Z,11.60
2019-05-13T14:43:18.052Z,11.70
2019-05-13T14:45:48.574Z,11.60
2019-05-13T14:48:18.929Z,11.50
2019-05-13T14:50:49.498Z,11.50
2019-05-13T14:53:21.474Z,11.50
2019-05-13T14:55:51.927Z,11.30
2019-05-13T14:58:22.617Z,11.40
2019-05-13T15:01:10.433Z,11.30
2019-05-13T15:03:24.937Z,11.50
2019-05-13T15:05:55.405Z,11.30
2019-05-13T15:08:26.100Z,11.30
2019-05-13T15:10:56.384Z,11.50
2019-05-13T15:13:26.768Z,11.80
2019-05-13T15:15:57.155Z,11.80
2019-05-13T15:18:27.506Z,11.70
2019-05-13T15:20:58.183Z,11.30
2019-05-13T15:23:28.465Z,11.30
2019-05-13T15:25:58.765Z,10.90
2019-05-13T15:28:30.932Z,10.80
2019-05-13T15:31:01.056Z,10.60
2019-05-13T15:33:32.601Z,10.60
2019-05-13T15:36:03.357Z,10.70
2019-05-13T15:38:33.833Z,10.70
2019-05-13T15:41:04.352Z,10.70
2019-05-13T15:43:34.568Z,10.60
2019-05-13T15:46:04.945Z,10.70
2019-05-13T15:48:35.505Z,10.90
2019-05-13T15:51:05.953Z,10.90
2019-05-13T15:53:36.634Z,11.00
2019-05-13T15:56:06.844Z,10.80
2019-05-13T15:58:39.893Z,10.90
2019-05-13T16:01:12.330Z,10.90
2019-05-13T16:03:41.680Z,10.70
2019-05-13T16:06:12.164Z,10.90
2019-05-13T16:08:43.335Z,11.00
2019-05-13T16:11:14.295Z,11.30
2019-05-13T16:13:45.021Z,11.80
2019-05-13T16:16:15.384Z,11.80
2019-05-13T16:18:45.661Z,11.50
2019-05-13T16:21:16.193Z,11.50
2019-05-13T16:23:46.410Z,11.40
2019-05-13T16:26:16.917Z,11.30
2019-05-13T16:28:47.321Z,11.20
2019-05-13T16:31:17.912Z,11.10
2019-05-13T16:33:48.421Z,11.00
2019-05-13T16:36:18.722Z,11.00
2019-05-13T16:38:49.004Z,11.00
2019-05-13T16:41:19.657Z,11.00
2019-05-13T16:43:50.033Z,11.20
2019-05-13T16:46:21.396Z,11.10
2019-05-13T16:48:51.929Z,11.10
2019-05-13T16:51:22.298Z,11.10
2019-05-13T16:53:52.620Z,11.00
2019-05-13T16:56:27.637Z,11.00
2019-05-13T16:58:54.872Z,11.00
2019-05-13T17:01:25.327Z,11.00
2019-05-13T17:03:55.789Z,10.80
2019-05-13T17:06:26.336Z,10.90
2019-05-13T17:08:56.541Z,10.80
2019-05-13T17:11:26.866Z,10.80
2019-05-13T17:13:57.150Z,10.80
2019-05-13T17:16:27.369Z,10.80
2019-05-13T17:18:57.593Z,10.70
2019-05-13T17:21:28.068Z,10.70
2019-05-13T17:23:58.289Z,10.70
2019-05-13T17:26:29.925Z,10.60
2019-05-13T17:29:01.377Z,10.60
2019-05-13T17:31:32.548Z,10.60
2019-05-13T17:34:03.903Z,10.50
2019-05-13T17:36:34.528Z,10.50
2019-05-13T17:39:07.002Z,10.40
2019-05-13T17:41:37.641Z,10.40
2019-05-13T17:44:07.917Z,10.30
2019-05-13T17:46:38.514Z,10.30
2019-05-13T17:49:08.792Z,10.20
2019-05-13T17:51:42.284Z,10.20
2019-05-13T17:54:12.092Z,10.10
2019-05-13T17:56:42.469Z,10.10
2019-05-13T17:59:12.997Z,10.10
2019-05-13T18:01:44.628Z,10.00
2019-05-13T18:04:15.416Z,9.90
2019-05-13T18:06:45.737Z,9.90
2019-05-13T18:09:16.016Z,9.90
2019-05-13T18:11:46.164Z,9.80
2019-05-13T18:14:16.505Z,9.80
2019-05-13T18:16:46.665Z,9.70
2019-05-13T18:19:16.873Z,9.70
2019-05-13T18:21:47.098Z,9.70
2019-05-13T18:24:17.381Z,9.60
2019-05-13T18:26:47.732Z,9.60
2019-05-13T18:29:18.005Z,9.50
2019-05-13T18:31:48.364Z,9.50
2019-05-13T18:34:18.826Z,9.40
2019-05-13T18:36:51.423Z,9.30
2019-05-13T18:39:21.744Z,9.30
2019-05-13T18:41:52.117Z,9.10
2019-05-13T18:44:22.429Z,9.00
2019-05-13T18:46:52.828Z,8.90
2019-05-13T18:49:23.212Z,8.90
2019-05-13T18:51:53.552Z,8.70
2019-05-13T18:54:23.865Z,8.70
2019-05-13T18:56:55.616Z,8.60
2019-05-13T18:59:25.965Z,8.50
2019-05-13T19:01:56.293Z,8.50
2019-05-13T19:04:26.509Z,8.40
2019-05-13T19:06:56.964Z,8.30
2019-05-13T19:09:27.249Z,8.20
2019-05-13T19:11:57.550Z,8.20
2019-05-13T19:14:27.904Z,8.00
2019-05-13T19:16:58.243Z,7.90
2019-05-13T19:19:28.585Z,7.90
2019-05-13T19:21:58.944Z,7.80
2019-05-13T19:24:31.257Z,7.80
2019-05-13T19:27:01.818Z,7.90
2019-05-13T19:29:32.288Z,7.80
2019-05-13T19:32:02.843Z,7.70
2019-05-13T19:34:33.113Z,7.70
2019-05-13T19:37:03.264Z,7.70
2019-05-13T19:39:33.684Z,7.60
2019-05-13T19:42:04.221Z,7.50
2019-05-13T19:44:34.429Z,7.50
2019-05-13T19:47:04.858Z,7.60
2019-05-13T19:49:37.186Z,7.70
2019-05-13T19:52:07.701Z,7.50
2019-05-13T19:54:38.005Z,7.40
2019-05-13T19:57:08.392Z,7.40
2019-05-13T19:59:38.709Z,7.50
2019-05-13T20:02:09.090Z,7.60
2019-05-13T20:04:41.348Z,7.60
2019-05-13T20:07:12.020Z,7.70
2019-05-13T20:09:42.778Z,7.60
2019-05-13T20:12:15.653Z,7.40
2019-05-13T20:14:45.109Z,7.30
2019-05-13T20:17:15.311Z,7.20
2019-05-13T20:19:50.509Z,7.10
2019-05-13T20:22:17.710Z,7.00
2019-05-13T20:24:48.156Z,7.10
2019-05-13T20:27:18.460Z,7.10
2019-05-13T20:29:51.033Z,7.20
2019-05-13T20:32:22.244Z,7.10
2019-05-13T20:34:53.013Z,7.20
2019-05-13T20:37:23.456Z,7.30
2019-05-13T20:39:53.774Z,7.30
2019-05-13T20:42:23.900Z,7.30
2019-05-13T20:44:54.390Z,7.20
2019-05-13T20:47:24.824Z,7.20
2019-05-13T20:50:01.479Z,7.20
2019-05-13T20:52:27.072Z,7.20
2019-05-13T20:54:57.428Z,7.20
2019-05-13T20:57:27.634Z,7.30
2019-05-13T20:59:58.116Z,7.30
2019-05-13T21:02:28.401Z,7.30
2019-05-13T21:04:58.596Z,7.40
2019-05-13T21:07:28.816Z,7.30
2019-05-13T21:10:01.300Z,7.40
2019-05-13T21:12:31.455Z,7.40
2019-05-13T21:15:01.879Z,7.30
2019-05-13T21:17:32.265Z,7.30
2019-05-13T21:20:18.228Z,7.30
2019-05-13T21:22:34.876Z,7.30
2019-05-13T21:25:09.109Z,7.30
2019-05-13T21:27:39.388Z,7.30
2019-05-13T21:30:11.914Z,7.20
2019-05-13T21:32:42.134Z,7.30
2019-05-13T21:35:12.582Z,7.30
2019-05-13T21:37:43.008Z,7.30
2019-05-13T21:40:15.585Z,7.30
2019-05-13T21:42:46.145Z,7.20
2019-05-13T21:45:16.552Z,7.20
2019-05-13T21:47:46.852Z,7.20
2019-05-13T21:50:30.404Z,7.10
2019-05-13T21:52:51.467Z,7.10
2019-05-13T21:55:21.708Z,7.10
2019-05-13T21:57:53.028Z,7.10
2019-05-13T22:00:26.316Z,7.00
2019-05-13T22:02:56.834Z,7.00
2019-05-13T22:05:27.122Z,7.00
2019-05-13T22:07:57.249Z,7.00
2019-05-13T22:10:27.884Z,7.00
2019-05-13T22:12:58.085Z,6.80
2019-05-13T22:15:28.562Z,6.80
2019-05-13T22:17:58.828Z,6.70
2019-05-13T22:20:31.469Z,6.70
2019-05-13T22:23:01.503Z,6.70
2019-05-13T22:25:31.977Z,6.70
2019-05-13T22:28:02.340Z,6.60
2019-05-13T22:30:33.580Z,6.60
2019-05-13T22:33:04.073Z,6.60
2019-05-13T22:35:34.388Z,6.50
2019-05-13T22:38:04.680Z,6.50
2019-05-13T22:40:34.829Z,6.40
2019-05-13T22:43:05.227Z,6.40
2019-05-13T22:45:35.490Z,6.40
2019-05-13T22:48:06.645Z,6.40
2019-05-13T22:50:36.908Z,6.40
2019-05-13T22:53:07.116Z,6.30
2019-05-13T22:55:37.396Z,6.30
2019-05-13T22:58:07.605Z,6.30
2019-05-13T23:00:37.877Z,6.30
2019-05-13T23:03:08.164Z,6.30
2019-05-13T23:05:38.363Z,6.30
2019-05-13T23:08:11.130Z,6.30
2019-05-13T23:10:42.117Z,6.30
2019-05-13T23:13:12.508Z,6.30
2019-05-13T23:15:42.708Z,6.30
2019-05-13T23:18:13.060Z,6.20
2019-05-13T23:20:43.425Z,6.20
2019-05-13T23:23:14.269Z,6.20
2019-05-13T23:25:44.467Z,6.20
2019-05-13T23:28:14.680Z,6.20
2019-05-13T23:30:44.807Z,6.20
2019-05-13T23:33:15.097Z,6.10
2019-05-13T23:35:45.550Z,6.10
2019-05-13T23:38:15.824Z,6.10
2019-05-13T23:40:46.085Z,6.10
2019-05-13T23:43:16.302Z,6.00
2019-05-13T23:45:46.704Z,6.00
2019-05-13T23:48:16.848Z,6.00
2019-05-13T23:50:47.405Z,6.10
2019-05-13T23:53:17.703Z,6.10
2019-05-13T23:55:47.916Z,6.10
2019-05-13T23:58:18.669Z,6.10
